sensor_id;sensor_type;location;lat;lon;timestamp;temperature;humidity
64874;HTU21D;51367;45.204;38.576;2022-09-02T00:00:55;21.60;64.50
64874;HTU21D;51367;45.204;38.576;2022-09-02T00:03:29;21.61;64.50
64874;HTU21D;51367;45.204;38.576;2022-09-02T00:05:56;21.60;64.48
64874;HTU21D;51367;45.204;38.576;2022-09-02T00:08:22;21.58;64.53
64874;HTU21D;51367;45.204;38.576;2022-09-02T00:10:48;21.58;64.53
64874;HTU21D;51367;45.204;38.576;2022-09-02T00:13:16;21.57;64.56
64874;HTU21D;51367;45.204;38.576;2022-09-02T00:15:44;21.52;64.63
64874;HTU21D;51367;45.204;38.576;2022-09-02T00:18:11;21.50;64.74
64874;HTU21D;51367;45.204;38.576;2022-09-02T00:20:39;21.47;64.82
64874;HTU21D;51367;45.204;38.576;2022-09-02T00:23:05;21.45;64.87
64874;HTU21D;51367;45.204;38.576;2022-09-02T00:25:34;21.45;64.85
64874;HTU21D;51367;45.204;38.576;2022-09-02T00:28:01;21.42;64.90
64874;HTU21D;51367;45.204;38.576;2022-09-02T00:30:27;21.33;65.05
64874;HTU21D;51367;45.204;38.576;2022-09-02T00:32:54;21.27;65.21
64874;HTU21D;51367;45.204;38.576;2022-09-02T00:35:20;21.22;65.36
64874;HTU21D;51367;45.204;38.576;2022-09-02T00:37:46;21.19;65.43
64874;HTU21D;51367;45.204;38.576;2022-09-02T00:40:13;21.16;65.46
64874;HTU21D;51367;45.204;38.576;2022-09-02T00:42:39;21.07;65.52
64874;HTU21D;51367;45.204;38.576;2022-09-02T00:45:07;21.01;65.66
64874;HTU21D;51367;45.204;38.576;2022-09-02T00:47:34;20.92;65.78
64874;HTU21D;51367;45.204;38.576;2022-09-02T00:50:05;20.87;65.91
64874;HTU21D;51367;45.204;38.576;2022-09-02T00:52:39;20.85;65.98
64874;HTU21D;51367;45.204;38.576;2022-09-02T00:55:10;20.85;65.88
64874;HTU21D;51367;45.204;38.576;2022-09-02T00:57:41;20.83;65.91
64874;HTU21D;51367;45.204;38.576;2022-09-02T01:02:39;20.79;65.88
64874;HTU21D;51367;45.204;38.576;2022-09-02T01:05:09;20.72;66.07
64874;HTU21D;51367;45.204;38.576;2022-09-02T01:07:36;20.73;66.10
64874;HTU21D;51367;45.204;38.576;2022-09-02T01:10:06;20.70;66.07
64874;HTU21D;51367;45.204;38.576;2022-09-02T01:12:34;20.64;66.20
64874;HTU21D;51367;45.204;38.576;2022-09-02T01:15:01;20.66;66.23
64874;HTU21D;51367;45.204;38.576;2022-09-02T01:17:28;20.68;66.19
64874;HTU21D;51367;45.204;38.576;2022-09-02T01:19:58;20.69;66.18
64874;HTU21D;51367;45.204;38.576;2022-09-02T01:22:29;20.68;66.14
64874;HTU21D;51367;45.204;38.576;2022-09-02T01:24:57;20.63;66.18
64874;HTU21D;51367;45.204;38.576;2022-09-02T01:27:25;20.62;66.24
64874;HTU21D;51367;45.204;38.576;2022-09-02T01:29:54;20.59;66.26
64874;HTU21D;51367;45.204;38.576;2022-09-02T01:32:21;20.59;66.27
64874;HTU21D;51367;45.204;38.576;2022-09-02T01:34:47;20.57;66.26
64874;HTU21D;51367;45.204;38.576;2022-09-02T01:37:14;20.46;66.36
64874;HTU21D;51367;45.204;38.576;2022-09-02T01:39:40;20.35;66.63
64874;HTU21D;51367;45.204;38.576;2022-09-02T01:42:07;20.24;66.94
64874;HTU21D;51367;45.204;38.576;2022-09-02T01:44:34;20.16;67.15
64874;HTU21D;51367;45.204;38.576;2022-09-02T01:47:03;20.14;67.33
64874;HTU21D;51367;45.204;38.576;2022-09-02T01:49:30;20.14;67.27
64874;HTU21D;51367;45.204;38.576;2022-09-02T01:51:55;20.13;67.27
64874;HTU21D;51367;45.204;38.576;2022-09-02T01:54:23;20.07;67.26
64874;HTU21D;51367;45.204;38.576;2022-09-02T01:56:49;20.00;67.32
64874;HTU21D;51367;45.204;38.576;2022-09-02T01:59:17;19.92;67.47
64874;HTU21D;51367;45.204;38.576;2022-09-02T02:01:44;19.86;67.66
64874;HTU21D;51367;45.204;38.576;2022-09-02T02:04:11;19.77;67.80
64874;HTU21D;51367;45.204;38.576;2022-09-02T02:06:45;19.67;68.10
64874;HTU21D;51367;45.204;38.576;2022-09-02T02:09:14;19.59;68.23
64874;HTU21D;51367;45.204;38.576;2022-09-02T02:11:43;19.57;68.27
64874;HTU21D;51367;45.204;38.576;2022-09-02T02:14:12;19.52;68.49
64874;HTU21D;51367;45.204;38.576;2022-09-02T02:16:43;19.45;68.49
64874;HTU21D;51367;45.204;38.576;2022-09-02T02:19:11;19.39;68.54
64874;HTU21D;51367;45.204;38.576;2022-09-02T02:21:38;19.33;68.65
64874;HTU21D;51367;45.204;38.576;2022-09-02T02:24:05;19.27;68.79
64874;HTU21D;51367;45.204;38.576;2022-09-02T02:26:33;19.21;68.94
64874;HTU21D;51367;45.204;38.576;2022-09-02T02:29:03;19.16;69.12
64874;HTU21D;51367;45.204;38.576;2022-09-02T02:31:30;19.12;69.20
64874;HTU21D;51367;45.204;38.576;2022-09-02T02:33:56;19.08;69.35
64874;HTU21D;51367;45.204;38.576;2022-09-02T02:36:22;19.05;69.42
64874;HTU21D;51367;45.204;38.576;2022-09-02T02:38:48;19.01;69.55
64874;HTU21D;51367;45.204;38.576;2022-09-02T02:41:15;19.01;69.65
64874;HTU21D;51367;45.204;38.576;2022-09-02T02:43:43;19.01;69.78
64874;HTU21D;51367;45.204;38.576;2022-09-02T02:46:10;19.00;69.72
64874;HTU21D;51367;45.204;38.576;2022-09-02T02:48:37;18.99;70.15
64874;HTU21D;51367;45.204;38.576;2022-09-02T02:51:05;18.99;70.23
64874;HTU21D;51367;45.204;38.576;2022-09-02T02:53:32;18.99;70.07
64874;HTU21D;51367;45.204;38.576;2022-09-02T02:55:59;19.00;70.07
64874;HTU21D;51367;45.204;38.576;2022-09-02T02:58:26;19.00;70.23
64874;HTU21D;51367;45.204;38.576;2022-09-02T03:00:53;19.02;70.24
64874;HTU21D;51367;45.204;38.576;2022-09-02T03:03:20;19.05;70.20
64874;HTU21D;51367;45.204;38.576;2022-09-02T03:05:51;19.08;70.10
64874;HTU21D;51367;45.204;38.576;2022-09-02T03:08:20;19.10;70.03
64874;HTU21D;51367;45.204;38.576;2022-09-02T03:10:49;19.11;70.03
64874;HTU21D;51367;45.204;38.576;2022-09-02T03:13:24;19.13;69.98
64874;HTU21D;51367;45.204;38.576;2022-09-02T03:15:51;19.16;69.94
64874;HTU21D;51367;45.204;38.576;2022-09-02T03:18:18;19.18;69.90
64874;HTU21D;51367;45.204;38.576;2022-09-02T03:20:46;19.21;69.85
64874;HTU21D;51367;45.204;38.576;2022-09-02T03:23:12;19.24;69.95
64874;HTU21D;51367;45.204;38.576;2022-09-02T03:25:44;19.27;70.01
64874;HTU21D;51367;45.204;38.576;2022-09-02T03:28:19;19.31;70.23
64874;HTU21D;51367;45.204;38.576;2022-09-02T03:30:45;19.33;70.29
64874;HTU21D;51367;45.204;38.576;2022-09-02T03:33:14;19.38;70.27
64874;HTU21D;51367;45.204;38.576;2022-09-02T03:35:42;19.40;70.29
64874;HTU21D;51367;45.204;38.576;2022-09-02T03:38:10;19.40;70.30
64874;HTU21D;51367;45.204;38.576;2022-09-02T03:40:38;19.38;70.28
64874;HTU21D;51367;45.204;38.576;2022-09-02T03:43:05;19.39;70.24
64874;HTU21D;51367;45.204;38.576;2022-09-02T03:45:31;19.40;70.20
64874;HTU21D;51367;45.204;38.576;2022-09-02T03:48:02;19.43;70.19
64874;HTU21D;51367;45.204;38.576;2022-09-02T03:50:35;19.47;70.16
64874;HTU21D;51367;45.204;38.576;2022-09-02T03:53:03;19.53;70.10
64874;HTU21D;51367;45.204;38.576;2022-09-02T03:55:29;19.58;70.13
64874;HTU21D;51367;45.204;38.576;2022-09-02T03:57:56;19.62;70.27
64874;HTU21D;51367;45.204;38.576;2022-09-02T04:00:25;19.71;70.36
64874;HTU21D;51367;45.204;38.576;2022-09-02T04:02:56;19.81;70.27
64874;HTU21D;51367;45.204;38.576;2022-09-02T04:05:23;19.90;70.25
64874;HTU21D;51367;45.204;38.576;2022-09-02T04:07:52;20.01;70.07
64874;HTU21D;51367;45.204;38.576;2022-09-02T04:10:20;20.15;70.04
64874;HTU21D;51367;45.204;38.576;2022-09-02T04:12:49;20.28;69.78
64874;HTU21D;51367;45.204;38.576;2022-09-02T04:15:15;20.40;69.67
64874;HTU21D;51367;45.204;38.576;2022-09-02T04:17:41;20.50;69.67
64874;HTU21D;51367;45.204;38.576;2022-09-02T04:20:11;20.64;69.56
64874;HTU21D;51367;45.204;38.576;2022-09-02T04:22:38;20.80;69.60
64874;HTU21D;51367;45.204;38.576;2022-09-02T04:25:06;20.94;69.49
64874;HTU21D;51367;45.204;38.576;2022-09-02T04:27:33;21.07;69.62
64874;HTU21D;51367;45.204;38.576;2022-09-02T04:30:00;21.20;69.58
64874;HTU21D;51367;45.204;38.576;2022-09-02T04:32:28;21.33;69.55
64874;HTU21D;51367;45.204;38.576;2022-09-02T04:34:54;21.39;69.62
64874;HTU21D;51367;45.204;38.576;2022-09-02T04:37:21;21.45;69.79
64874;HTU21D;51367;45.204;38.576;2022-09-02T04:39:47;21.50;69.81
64874;HTU21D;51367;45.204;38.576;2022-09-02T04:42:14;21.61;69.78
64874;HTU21D;51367;45.204;38.576;2022-09-02T04:44:40;21.69;69.93
64874;HTU21D;51367;45.204;38.576;2022-09-02T04:47:07;21.75;70.12
64874;HTU21D;51367;45.204;38.576;2022-09-02T04:49:33;21.81;70.42
64874;HTU21D;51367;45.204;38.576;2022-09-02T04:51:59;21.91;70.48
64874;HTU21D;51367;45.204;38.576;2022-09-02T04:54:27;22.13;70.16
64874;HTU21D;51367;45.204;38.576;2022-09-02T04:56:57;22.25;69.74
64874;HTU21D;51367;45.204;38.576;2022-09-02T04:59:24;22.33;69.68
64874;HTU21D;51367;45.204;38.576;2022-09-02T05:01:59;22.37;69.62
64874;HTU21D;51367;45.204;38.576;2022-09-02T05:04:28;22.44;69.68
64874;HTU21D;51367;45.204;38.576;2022-09-02T05:06:57;22.50;69.59
64874;HTU21D;51367;45.204;38.576;2022-09-02T05:09:28;22.54;69.64
64874;HTU21D;51367;45.204;38.576;2022-09-02T05:11:58;22.58;69.54
64874;HTU21D;51367;45.204;38.576;2022-09-02T05:14:36;22.63;69.50
64874;HTU21D;51367;45.204;38.576;2022-09-02T05:17:05;22.68;69.60
64874;HTU21D;51367;45.204;38.576;2022-09-02T05:19:31;22.70;69.41
64874;HTU21D;51367;45.204;38.576;2022-09-02T05:21:59;22.78;69.29
64874;HTU21D;51367;45.204;38.576;2022-09-02T05:24:38;22.91;69.11
64874;HTU21D;51367;45.204;38.576;2022-09-02T05:27:09;23.01;69.00
64874;HTU21D;51367;45.204;38.576;2022-09-02T05:29:35;23.06;68.86
64874;HTU21D;51367;45.204;38.576;2022-09-02T05:32:01;23.14;68.73
64874;HTU21D;51367;45.204;38.576;2022-09-02T05:34:30;23.28;68.62
64874;HTU21D;51367;45.204;38.576;2022-09-02T05:37:01;23.42;68.39
64874;HTU21D;51367;45.204;38.576;2022-09-02T05:39:30;23.56;68.18
64874;HTU21D;51367;45.204;38.576;2022-09-02T05:41:57;23.65;68.18
64874;HTU21D;51367;45.204;38.576;2022-09-02T05:44:23;23.77;68.20
64874;HTU21D;51367;45.204;38.576;2022-09-02T05:46:50;23.91;67.97
64874;HTU21D;51367;45.204;38.576;2022-09-02T05:49:17;24.10;67.59
64874;HTU21D;51367;45.204;38.576;2022-09-02T05:51:54;24.25;67.25
64874;HTU21D;51367;45.204;38.576;2022-09-02T05:54:28;24.32;66.79
64874;HTU21D;51367;45.204;38.576;2022-09-02T05:56:58;24.31;66.92
64874;HTU21D;51367;45.204;38.576;2022-09-02T05:59:28;24.39;66.94
64874;HTU21D;51367;45.204;38.576;2022-09-02T06:01:57;24.49;66.91
64874;HTU21D;51367;45.204;38.576;2022-09-02T06:04:26;24.61;67.52
64874;HTU21D;51367;45.204;38.576;2022-09-02T06:06:53;24.80;67.87
64874;HTU21D;51367;45.204;38.576;2022-09-02T06:09:21;25.06;67.90
64874;HTU21D;51367;45.204;38.576;2022-09-02T06:11:50;25.47;67.33
64874;HTU21D;51367;45.204;38.576;2022-09-02T06:14:22;25.93;66.29
64874;HTU21D;51367;45.204;38.576;2022-09-02T06:16:52;26.21;65.35
64874;HTU21D;51367;45.204;38.576;2022-09-02T06:19:27;26.49;64.59
64874;HTU21D;51367;45.204;38.576;2022-09-02T06:22:00;26.79;64.00
64874;HTU21D;51367;45.204;38.576;2022-09-02T06:24:26;27.02;63.34
64874;HTU21D;51367;45.204;38.576;2022-09-02T06:26:53;27.24;62.95
64874;HTU21D;51367;45.204;38.576;2022-09-02T06:29:20;27.45;62.31
64874;HTU21D;51367;45.204;38.576;2022-09-02T06:31:48;27.61;62.53
64874;HTU21D;51367;45.204;38.576;2022-09-02T06:34:18;27.81;62.62
64874;HTU21D;51367;45.204;38.576;2022-09-02T06:36:48;28.00;62.05
64874;HTU21D;51367;45.204;38.576;2022-09-02T06:39:19;28.17;61.46
64874;HTU21D;51367;45.204;38.576;2022-09-02T06:41:46;28.33;59.80
64874;HTU21D;51367;45.204;38.576;2022-09-02T06:44:15;28.40;59.79
64874;HTU21D;51367;45.204;38.576;2022-09-02T06:46:46;28.43;59.50
64874;HTU21D;51367;45.204;38.576;2022-09-02T06:49:14;28.46;59.14
64874;HTU21D;51367;45.204;38.576;2022-09-02T06:51:48;28.39;58.73
64874;HTU21D;51367;45.204;38.576;2022-09-02T06:54:18;28.43;58.99
64874;HTU21D;51367;45.204;38.576;2022-09-02T06:56:47;28.57;58.91
64874;HTU21D;51367;45.204;38.576;2022-09-02T06:59:17;28.77;59.00
64874;HTU21D;51367;45.204;38.576;2022-09-02T07:01:48;29.00;58.23
64874;HTU21D;51367;45.204;38.576;2022-09-02T07:04:17;29.17;57.19
64874;HTU21D;51367;45.204;38.576;2022-09-02T07:07:06;29.13;56.65
64874;HTU21D;51367;45.204;38.576;2022-09-02T07:09:39;29.07;56.55
64874;HTU21D;51367;45.204;38.576;2022-09-02T07:12:10;28.98;56.58
64874;HTU21D;51367;45.204;38.576;2022-09-02T07:14:43;28.97;56.22
64874;HTU21D;51367;45.204;38.576;2022-09-02T07:17:13;28.93;56.33
64874;HTU21D;51367;45.204;38.576;2022-09-02T07:19:51;29.03;56.15
64874;HTU21D;51367;45.204;38.576;2022-09-02T07:22:17;29.18;56.03
64874;HTU21D;51367;45.204;38.576;2022-09-02T07:24:43;29.38;55.63
64874;HTU21D;51367;45.204;38.576;2022-09-02T07:27:10;29.48;54.94
64874;HTU21D;51367;45.204;38.576;2022-09-02T07:29:38;29.47;54.16
64874;HTU21D;51367;45.204;38.576;2022-09-02T07:32:06;29.34;53.81
64874;HTU21D;51367;45.204;38.576;2022-09-02T07:34:33;29.22;54.10
64874;HTU21D;51367;45.204;38.576;2022-09-02T07:36:59;29.15;53.76
64874;HTU21D;51367;45.204;38.576;2022-09-02T07:39:25;29.05;53.96
64874;HTU21D;51367;45.204;38.576;2022-09-02T07:41:52;29.03;53.92
64874;HTU21D;51367;45.204;38.576;2022-09-02T07:44:21;29.03;53.88
64874;HTU21D;51367;45.204;38.576;2022-09-02T07:46:49;29.08;54.21
64874;HTU21D;51367;45.204;38.576;2022-09-02T07:49:18;29.19;53.95
64874;HTU21D;51367;45.204;38.576;2022-09-02T07:51:49;29.26;53.56
64874;HTU21D;51367;45.204;38.576;2022-09-02T07:54:20;29.26;52.94
64874;HTU21D;51367;45.204;38.576;2022-09-02T07:56:47;29.31;53.04
64874;HTU21D;51367;45.204;38.576;2022-09-02T07:59:17;29.34;52.65
64874;HTU21D;51367;45.204;38.576;2022-09-02T08:01:44;29.31;52.61
64874;HTU21D;51367;45.204;38.576;2022-09-02T08:04:14;29.28;52.74
64874;HTU21D;51367;45.204;38.576;2022-09-02T08:06:41;29.38;53.02
64874;HTU21D;51367;45.204;38.576;2022-09-02T08:09:08;29.56;52.28
64874;HTU21D;51367;45.204;38.576;2022-09-02T08:11:39;29.64;51.70
64874;HTU21D;51367;45.204;38.576;2022-09-02T08:14:09;29.75;51.66
64874;HTU21D;51367;45.204;38.576;2022-09-02T08:16:37;29.85;51.60
64874;HTU21D;51367;45.204;38.576;2022-09-02T08:19:04;29.89;51.06
64874;HTU21D;51367;45.204;38.576;2022-09-02T08:21:31;29.85;50.57
64874;HTU21D;51367;45.204;38.576;2022-09-02T08:23:57;29.89;50.59
64874;HTU21D;51367;45.204;38.576;2022-09-02T08:26:25;29.93;49.79
64874;HTU21D;51367;45.204;38.576;2022-09-02T08:28:54;29.94;49.99
64874;HTU21D;51367;45.204;38.576;2022-09-02T08:31:20;29.94;49.93
64874;HTU21D;51367;45.204;38.576;2022-09-02T08:33:46;29.95;49.93
64874;HTU21D;51367;45.204;38.576;2022-09-02T08:36:13;29.97;49.92
64874;HTU21D;51367;45.204;38.576;2022-09-02T08:38:41;29.95;49.94
64874;HTU21D;51367;45.204;38.576;2022-09-02T08:41:58;29.95;49.48
64874;HTU21D;51367;45.204;38.576;2022-09-02T08:44:00;29.94;49.54
64874;HTU21D;51367;45.204;38.576;2022-09-02T08:46:30;29.89;49.59
64874;HTU21D;51367;45.204;38.576;2022-09-02T08:49:08;29.90;49.46
64874;HTU21D;51367;45.204;38.576;2022-09-02T08:51:44;29.90;49.12
64874;HTU21D;51367;45.204;38.576;2022-09-02T08:56:48;29.73;49.33
64874;HTU21D;51367;45.204;38.576;2022-09-02T08:59:26;29.68;49.43
64874;HTU21D;51367;45.204;38.576;2022-09-02T09:05:20;29.76;49.29
64874;HTU21D;51367;45.204;38.576;2022-09-02T09:10:58;29.71;49.07
64874;HTU21D;51367;45.204;38.576;2022-09-02T09:16:05;29.72;49.17
64874;HTU21D;51367;45.204;38.576;2022-09-02T09:18:56;29.72;48.74
64874;HTU21D;51367;45.204;38.576;2022-09-02T09:21:25;29.77;48.08
64874;HTU21D;51367;45.204;38.576;2022-09-02T09:23:53;29.79;48.22
64874;HTU21D;51367;45.204;38.576;2022-09-02T09:26:26;29.80;48.31
64874;HTU21D;51367;45.204;38.576;2022-09-02T09:28:53;29.77;48.24
64874;HTU21D;51367;45.204;38.576;2022-09-02T09:31:23;29.68;47.89
64874;HTU21D;51367;45.204;38.576;2022-09-02T09:39:29;29.54;48.21
64874;HTU21D;51367;45.204;38.576;2022-09-02T09:42:01;29.63;47.66
64874;HTU21D;51367;45.204;38.576;2022-09-02T09:44:40;29.73;46.91
64874;HTU21D;51367;45.204;38.576;2022-09-02T09:47:14;29.88;47.37
64874;HTU21D;51367;45.204;38.576;2022-09-02T09:49:42;29.92;47.06
64874;HTU21D;51367;45.204;38.576;2022-09-02T09:52:08;30.00;46.76
64874;HTU21D;51367;45.204;38.576;2022-09-02T09:54:34;30.01;46.54
64874;HTU21D;51367;45.204;38.576;2022-09-02T09:57:19;30.05;46.83
64874;HTU21D;51367;45.204;38.576;2022-09-02T09:59:47;30.15;46.40
